createdAt,value
2019-05-22T00:00:17.450Z,33.33
2019-05-22T00:02:47.753Z,30.10
2019-05-22T00:05:17.722Z,38.50
2019-05-22T00:07:46.975Z,36.87
2019-05-22T00:10:20.223Z,33.13
2019-05-22T00:12:49.559Z,35.52
2019-05-22T00:15:18.754Z,38.78
2019-05-22T00:17:49.161Z,37.75
2019-05-22T00:20:19.790Z,34.23
2019-05-22T00:22:48.140Z,31.63
2019-05-22T00:25:23.932Z,32.57
2019-05-22T00:27:53.781Z,31.87
2019-05-22T00:30:23.781Z,32.23
2019-05-22T00:32:52.342Z,32.00
2019-05-22T00:35:21.753Z,27.53
2019-05-22T00:37:51.075Z,29.77
2019-05-22T00:40:20.497Z,29.47
2019-05-22T00:43:03.429Z,27.80
2019-05-22T00:45:22.377Z,30.43
2019-05-22T00:47:52.305Z,32.40
2019-05-22T00:50:30.698Z,26.80
2019-05-22T00:53:05.062Z,29.97
2019-05-22T00:55:41.389Z,30.20
2019-05-22T00:58:26.619Z,28.67
2019-05-22T01:01:01.378Z,32.80
2019-05-22T01:03:31.987Z,31.02
2019-05-22T01:06:01.403Z,48.80
2019-05-22T01:08:29.681Z,25.95
2019-05-22T01:11:00.990Z,30.43
2019-05-22T01:13:30.660Z,30.07
2019-05-22T01:15:59.403Z,32.70
2019-05-22T01:18:28.370Z,38.33
2019-05-22T01:20:59.118Z,34.10
2019-05-22T01:23:30.094Z,25.83
2019-05-22T01:26:00.489Z,33.70
2019-05-22T01:28:30.129Z,28.43
2019-05-22T01:31:02.889Z,31.07
2019-05-22T01:33:32.872Z,31.10
2019-05-22T01:36:02.795Z,32.20
2019-05-22T01:38:32.701Z,31.10
2019-05-22T01:41:05.810Z,36.88
2019-05-22T01:43:34.941Z,35.47
2019-05-22T01:46:03.892Z,39.10
2019-05-22T01:48:37.383Z,36.17
2019-05-22T01:51:07.108Z,30.60
2019-05-22T01:53:42.019Z,34.47
2019-05-22T01:56:12.220Z,33.03
2019-05-22T01:58:42.814Z,34.10
2019-05-22T02:01:16.940Z,34.43
2019-05-22T02:03:47.044Z,36.53
2019-05-22T02:06:17.853Z,35.52
2019-05-22T02:08:53.246Z,37.45
2019-05-22T02:11:23.263Z,32.05
2019-05-22T02:13:54.997Z,42.03
2019-05-22T02:16:24.041Z,36.07
2019-05-22T02:18:52.498Z,39.70
2019-05-22T02:21:21.640Z,39.53
2019-05-22T02:23:49.922Z,40.83
2019-05-22T02:26:19.766Z,34.70
2019-05-22T02:28:48.800Z,45.23
2019-05-22T02:31:18.714Z,40.33
2019-05-22T02:34:03.469Z,42.65
2019-05-22T02:36:32.785Z,36.15
2019-05-22T02:39:01.142Z,38.13
2019-05-22T02:41:42.113Z,37.37
2019-05-22T02:44:10.676Z,38.37
2019-05-22T02:46:39.247Z,41.00
2019-05-22T02:49:09.530Z,35.65
2019-05-22T02:51:37.933Z,34.70
2019-05-22T02:54:06.920Z,37.87
2019-05-22T02:56:36.067Z,40.97
2019-05-22T02:59:07.555Z,35.70
2019-05-22T03:01:37.037Z,47.20
2019-05-22T03:04:05.668Z,39.83
2019-05-22T03:06:35.657Z,44.93
2019-05-22T03:09:10.758Z,37.10
2019-05-22T03:11:42.535Z,38.10
2019-05-22T03:14:12.492Z,37.00
2019-05-22T03:16:56.263Z,34.78
2019-05-22T03:19:40.403Z,35.70
2019-05-22T03:22:27.571Z,40.27
2019-05-22T03:24:57.861Z,39.70
2019-05-22T03:27:43.988Z,39.27
2019-05-22T03:30:27.711Z,41.00
2019-05-22T03:32:56.979Z,42.13
2019-05-22T03:35:26.256Z,36.77
2019-05-22T03:37:56.221Z,38.73
2019-05-22T03:40:26.515Z,47.57
2019-05-22T03:42:55.247Z,35.87
2019-05-22T03:45:23.607Z,41.03
2019-05-22T03:47:52.948Z,40.83
2019-05-22T03:50:22.814Z,38.88
2019-05-22T03:52:51.814Z,37.05
2019-05-22T03:55:20.982Z,36.20
2019-05-22T03:57:49.722Z,39.05
2019-05-22T04:00:19.598Z,41.08
2019-05-22T04:02:53.723Z,35.20
2019-05-22T04:05:23.160Z,35.87
2019-05-22T04:07:53.677Z,33.80
2019-05-22T04:10:23.856Z,32.13
2019-05-22T04:12:53.676Z,29.67
2019-05-22T04:15:23.328Z,33.63
2019-05-22T04:17:52.368Z,32.67
2019-05-22T04:20:20.878Z,27.10
2019-05-22T04:22:51.069Z,25.57
2019-05-22T04:25:19.429Z,28.60
2019-05-22T04:27:47.734Z,29.10
2019-05-22T04:30:17.935Z,32.63
2019-05-22T04:32:46.489Z,31.97
2019-05-22T04:35:17.308Z,35.10
2019-05-22T04:37:47.283Z,29.43
2019-05-22T04:40:25.558Z,30.60
2019-05-22T04:42:54.580Z,24.30
2019-05-22T04:45:24.773Z,26.70
2019-05-22T04:47:58.494Z,24.63
2019-05-22T04:50:29.047Z,26.37
2019-05-22T04:52:57.794Z,24.80
2019-05-22T04:55:26.948Z,21.00
2019-05-22T04:57:55.386Z,26.90
2019-05-22T05:00:23.906Z,27.27
2019-05-22T05:02:53.096Z,27.87
2019-05-22T05:05:24.518Z,28.53
2019-05-22T05:07:53.778Z,27.85
2019-05-22T05:10:22.348Z,24.52
2019-05-22T05:12:50.846Z,25.85
2019-05-22T05:15:19.108Z,23.13
2019-05-22T05:17:47.439Z,29.33
2019-05-22T05:20:22.583Z,30.63
2019-05-22T05:22:47.473Z,25.27
2019-05-22T05:25:18.198Z,31.33
2019-05-22T05:27:47.539Z,28.07
2019-05-22T05:30:18.241Z,29.03
2019-05-22T05:32:47.576Z,26.90
2019-05-22T05:35:17.650Z,24.57
2019-05-22T05:37:46.515Z,29.97
2019-05-22T05:40:20.905Z,28.97
2019-05-22T05:42:49.955Z,31.57
2019-05-22T05:45:18.335Z,31.53
2019-05-22T05:47:46.683Z,30.53
2019-05-22T05:50:14.996Z,24.50
2019-05-22T05:52:43.979Z,28.03
2019-05-22T05:55:12.834Z,26.10
2019-05-22T05:57:53.633Z,31.80
2019-05-22T06:00:44.497Z,29.93
2019-05-22T06:03:29.880Z,34.70
2019-05-22T06:05:58.908Z,29.75
2019-05-22T06:08:27.199Z,33.63
2019-05-22T06:11:03.228Z,33.98
2019-05-22T06:13:31.995Z,29.43
2019-05-22T06:16:11.113Z,29.83
2019-05-22T06:18:39.854Z,30.57
2019-05-22T06:21:08.631Z,31.27
2019-05-22T06:23:42.209Z,35.03
2019-05-22T06:26:13.388Z,35.95
2019-05-22T06:28:42.341Z,28.10
2019-05-22T06:31:38.027Z,22.90
2019-05-22T06:34:06.875Z,26.47
2019-05-22T06:36:36.785Z,33.47
2019-05-22T06:39:09.051Z,34.00
2019-05-22T06:41:38.542Z,29.52
2019-05-22T06:44:35.302Z,26.00
2019-05-22T06:47:04.911Z,27.17
2019-05-22T06:49:35.140Z,23.62
2019-05-22T06:52:04.472Z,25.53
2019-05-22T06:54:33.019Z,25.00
2019-05-22T06:57:01.462Z,24.30
2019-05-22T06:59:29.833Z,27.00
2019-05-22T07:02:01.706Z,28.70
2019-05-22T07:04:29.774Z,19.00
2019-05-22T07:06:58.566Z,25.77
2019-05-22T07:09:28.086Z,21.48
2019-05-22T07:11:58.007Z,20.53
2019-05-22T07:14:27.123Z,19.47
2019-05-22T07:16:55.992Z,25.35
2019-05-22T07:19:24.765Z,23.40
2019-05-22T07:21:53.242Z,19.10
2019-05-22T07:24:22.688Z,18.70
2019-05-22T07:26:52.444Z,23.03
2019-05-22T07:29:20.985Z,23.30
2019-05-22T07:31:49.352Z,25.17
2019-05-22T07:34:18.581Z,20.63
2019-05-22T07:36:46.886Z,20.03
2019-05-22T07:39:15.230Z,25.60
2019-05-22T07:41:43.520Z,23.30
2019-05-22T07:44:11.817Z,18.70
2019-05-22T07:46:40.546Z,18.93
2019-05-22T07:49:09.010Z,21.70
2019-05-22T07:51:50.534Z,22.30
2019-05-22T07:54:07.379Z,18.83
2019-05-22T07:56:36.469Z,15.93
2019-05-22T07:59:05.303Z,27.80
2019-05-22T08:01:33.629Z,21.35
2019-05-22T08:04:02.889Z,19.27
2019-05-22T08:06:31.356Z,23.47
2019-05-22T08:08:59.925Z,26.90
2019-05-22T08:11:28.383Z,18.73
2019-05-22T08:13:57.732Z,24.95
2019-05-22T08:16:26.582Z,23.83
2019-05-22T08:18:54.897Z,25.90
2019-05-22T08:21:23.872Z,26.45
2019-05-22T08:23:53.878Z,23.05
2019-05-22T08:26:23.805Z,21.57
2019-05-22T08:28:52.166Z,21.35
2019-05-22T08:31:22.093Z,27.37
2019-05-22T08:33:50.442Z,21.30
2019-05-22T08:36:18.733Z,26.03
2019-05-22T08:38:47.031Z,28.37
2019-05-22T08:41:16.649Z,22.70
2019-05-22T08:44:15.219Z,23.25
2019-05-22T08:46:17.140Z,26.63
2019-05-22T08:48:48.708Z,29.43
2019-05-22T08:51:15.848Z,20.33
2019-05-22T08:53:48.167Z,25.30
2019-05-22T08:56:14.615Z,27.63
2019-05-22T08:58:44.955Z,22.37
2019-05-22T09:01:14.263Z,16.67
2019-05-22T09:03:42.646Z,19.93
2019-05-22T09:06:11.323Z,23.80
2019-05-22T09:08:40.267Z,19.90
2019-05-22T09:11:09.111Z,27.73
2019-05-22T09:13:38.358Z,17.77
2019-05-22T09:16:08.948Z,24.60
2019-05-22T09:18:37.320Z,21.60
2019-05-22T09:21:05.982Z,17.60
2019-05-22T09:23:35.985Z,19.82
2019-05-22T09:26:05.676Z,16.77
2019-05-22T09:28:34.003Z,18.77
2019-05-22T09:31:02.303Z,20.93
2019-05-22T09:33:31.247Z,17.17
2019-05-22T09:35:59.604Z,22.00
2019-05-22T09:38:28.166Z,22.07
2019-05-22T09:40:56.529Z,18.53
2019-05-22T09:43:24.896Z,18.63
2019-05-22T09:45:53.822Z,20.13
2019-05-22T09:48:22.267Z,18.40
2019-05-22T09:50:50.534Z,18.50
2019-05-22T09:53:19.649Z,21.05
2019-05-22T09:55:48.202Z,17.57
2019-05-22T09:58:16.671Z,13.38
2019-05-22T10:00:45.130Z,15.03
2019-05-22T10:03:13.538Z,19.80
2019-05-22T10:05:42.345Z,22.10
2019-05-22T10:08:10.740Z,18.10
2019-05-22T10:10:39.585Z,14.95
2019-05-22T10:13:08.054Z,18.73
2019-05-22T10:15:36.352Z,17.43
2019-05-22T10:18:06.034Z,14.27
2019-05-22T10:20:34.653Z,16.57
2019-05-22T10:23:14.798Z,12.37
2019-05-22T10:25:35.040Z,11.67
2019-05-22T10:28:04.468Z,10.57
2019-05-22T10:30:32.886Z,9.67
2019-05-22T10:33:01.144Z,10.67
2019-05-22T10:35:31.090Z,11.38
2019-05-22T10:37:59.538Z,14.07
2019-05-22T10:40:28.173Z,9.40
2019-05-22T10:42:57.236Z,15.60
2019-05-22T10:45:27.154Z,14.17
2019-05-22T10:47:55.435Z,11.37
2019-05-22T10:50:24.990Z,11.80
2019-05-22T10:52:54.910Z,13.53
2019-05-22T10:55:24.123Z,9.43
2019-05-22T10:57:52.569Z,12.10
2019-05-22T11:00:21.901Z,9.77
2019-05-22T11:02:50.216Z,12.87
2019-05-22T11:05:20.105Z,13.30
2019-05-22T11:07:49.025Z,9.33
2019-05-22T11:10:19.991Z,8.93
2019-05-22T11:12:48.511Z,10.48
2019-05-22T11:15:17.428Z,9.70
2019-05-22T11:17:45.705Z,8.67
2019-05-22T11:20:14.378Z,11.70
2019-05-22T11:22:42.643Z,7.45
2019-05-22T11:25:12.662Z,6.30
2019-05-22T11:27:41.297Z,12.25
2019-05-22T11:30:14.096Z,10.23
2019-05-22T11:32:42.620Z,7.03
2019-05-22T11:35:11.411Z,7.67
2019-05-22T11:37:39.963Z,9.17
2019-05-22T11:40:08.566Z,7.77
2019-05-22T11:42:38.126Z,11.53
2019-05-22T11:45:08.489Z,8.57
2019-05-22T11:47:36.805Z,6.87
2019-05-22T11:50:09.680Z,7.13
2019-05-22T11:52:38.040Z,5.43
2019-05-22T11:55:06.640Z,5.90
2019-05-22T11:57:35.384Z,5.13
2019-05-22T12:00:09.351Z,7.80
2019-05-22T12:02:39.468Z,6.20
2019-05-22T12:05:10.403Z,9.17
2019-05-22T12:07:43.459Z,6.63
2019-05-22T12:10:12.550Z,9.27
2019-05-22T12:12:41.392Z,6.37
2019-05-22T12:15:10.402Z,10.10
2019-05-22T12:17:39.239Z,5.57
2019-05-22T12:20:09.846Z,10.07
2019-05-22T12:22:38.495Z,8.43
2019-05-22T12:25:09.381Z,7.20
2019-05-22T12:27:37.681Z,8.67
2019-05-22T12:30:08.979Z,9.93
2019-05-22T12:32:38.042Z,8.07
2019-05-22T12:35:07.207Z,6.20
2019-05-22T12:37:35.680Z,7.00
2019-05-22T12:40:07.919Z,9.55
2019-05-22T12:42:36.377Z,6.67
2019-05-22T12:45:09.604Z,8.60
2019-05-22T12:47:38.301Z,7.87
2019-05-22T12:50:08.114Z,5.10
2019-05-22T12:52:36.591Z,6.00
2019-05-22T12:55:06.198Z,5.50
2019-05-22T12:57:34.578Z,6.07
2019-05-22T13:00:04.722Z,10.28
2019-05-22T13:02:34.773Z,7.00
2019-05-22T13:05:03.080Z,8.70
2019-05-22T13:07:31.628Z,8.50
2019-05-22T13:09:59.917Z,5.77
2019-05-22T13:12:28.466Z,7.33
2019-05-22T13:15:08.836Z,6.42
2019-05-22T13:17:27.808Z,6.92
2019-05-22T13:19:56.797Z,5.17
2019-05-22T13:22:26.401Z,5.70
2019-05-22T13:24:55.207Z,7.03
2019-05-22T13:27:23.579Z,4.13
2019-05-22T13:29:52.449Z,7.40
2019-05-22T13:32:21.567Z,8.20
2019-05-22T13:34:51.089Z,5.03
2019-05-22T13:37:19.430Z,7.00
2019-05-22T13:39:47.719Z,10.50
2019-05-22T13:42:15.993Z,5.03
2019-05-22T13:44:44.372Z,5.50
2019-05-22T13:47:13.125Z,7.37
2019-05-22T13:49:42.615Z,5.67
2019-05-22T13:52:11.845Z,8.03
2019-05-22T13:54:40.301Z,6.07
2019-05-22T13:57:09.135Z,7.30
2019-05-22T13:59:37.805Z,5.53
2019-05-22T14:02:06.167Z,5.85
2019-05-22T14:04:34.644Z,6.40
2019-05-22T14:07:03.295Z,5.50
2019-05-22T14:09:32.426Z,6.60
2019-05-22T14:12:00.794Z,5.10
2019-05-22T14:14:29.234Z,5.00
2019-05-22T14:16:57.509Z,5.60
2019-05-22T14:19:25.809Z,6.17
2019-05-22T14:21:54.192Z,6.15
2019-05-22T14:24:22.499Z,5.08
2019-05-22T14:26:50.912Z,6.37
2019-05-22T14:29:19.264Z,5.47
2019-05-22T14:31:47.551Z,4.70
2019-05-22T14:34:16.018Z,7.97
2019-05-22T14:36:44.762Z,4.80
2019-05-22T14:39:13.976Z,4.17
2019-05-22T14:41:42.359Z,4.50
2019-05-22T14:44:10.881Z,5.40
2019-05-22T14:46:39.240Z,6.17
2019-05-22T14:49:07.534Z,7.13
2019-05-22T14:51:35.808Z,3.58
2019-05-22T14:54:04.977Z,4.33
2019-05-22T14:56:33.605Z,4.53
2019-05-22T14:59:02.127Z,4.30
2019-05-22T15:01:30.474Z,4.10
2019-05-22T15:03:58.752Z,3.98
2019-05-22T15:06:27.408Z,4.30
2019-05-22T15:08:55.669Z,4.33
2019-05-22T15:11:23.937Z,3.77
2019-05-22T15:13:52.499Z,11.35
2019-05-22T15:16:21.357Z,7.83
2019-05-22T15:18:49.638Z,4.30
2019-05-22T15:21:18.311Z,3.63
2019-05-22T15:23:47.695Z,5.15
2019-05-22T15:26:16.108Z,4.53
2019-05-22T15:28:44.492Z,4.87
2019-05-22T15:31:12.808Z,3.67
2019-05-22T15:33:42.272Z,10.93
2019-05-22T15:36:12.662Z,7.23
2019-05-22T15:38:42.239Z,4.23
2019-05-22T15:41:10.834Z,5.63
2019-05-22T15:43:40.944Z,5.00
2019-05-22T15:46:10.165Z,7.43
2019-05-22T15:48:39.638Z,5.20
2019-05-22T15:51:09.927Z,9.98
2019-05-22T15:53:39.553Z,3.22
2019-05-22T15:56:09.316Z,4.17
2019-05-22T15:58:41.193Z,3.50
2019-05-22T16:01:10.926Z,3.62
2019-05-22T16:03:41.036Z,3.57
2019-05-22T16:06:10.505Z,5.60
2019-05-22T16:08:38.950Z,4.25
2019-05-22T16:11:09.161Z,4.30
2019-05-22T16:13:39.128Z,3.60
2019-05-22T16:16:09.585Z,5.00
2019-05-22T16:18:38.249Z,6.87
2019-05-22T16:21:09.018Z,8.15
2019-05-22T16:23:38.306Z,4.03
2019-05-22T16:26:07.986Z,6.93
2019-05-22T16:28:38.570Z,5.60
2019-05-22T16:31:10.336Z,4.40
2019-05-22T16:33:41.539Z,5.17
2019-05-22T16:36:10.203Z,9.00
2019-05-22T16:38:39.034Z,4.30
2019-05-22T16:41:07.693Z,4.40
2019-05-22T16:43:48.868Z,3.80
2019-05-22T16:46:07.788Z,5.10
2019-05-22T16:48:37.065Z,4.97
2019-05-22T16:51:06.713Z,4.60
2019-05-22T16:53:35.331Z,4.17
2019-05-22T16:56:03.701Z,4.27
2019-05-22T16:58:32.427Z,4.27
2019-05-22T17:01:00.712Z,4.75
2019-05-22T17:03:29.195Z,8.70
2019-05-22T17:05:57.758Z,6.20
2019-05-22T17:08:28.132Z,4.00
2019-05-22T17:10:59.422Z,3.87
2019-05-22T17:13:30.069Z,4.45
2019-05-22T17:15:58.683Z,4.72
2019-05-22T17:18:45.569Z,4.92
2019-05-22T17:20:58.889Z,5.60
2019-05-22T17:23:27.849Z,7.10
2019-05-22T17:25:58.023Z,6.67
2019-05-22T17:28:27.084Z,4.13
2019-05-22T17:30:56.253Z,6.43
2019-05-22T17:33:24.552Z,7.20
2019-05-22T17:35:53.272Z,5.50
2019-05-22T17:38:23.014Z,4.40
2019-05-22T17:40:52.043Z,4.00
2019-05-22T17:43:21.264Z,4.17
2019-05-22T17:45:49.785Z,4.30
2019-05-22T17:48:18.932Z,4.13
2019-05-22T17:50:47.366Z,5.17
2019-05-22T17:53:17.719Z,5.13
2019-05-22T17:55:47.005Z,6.50
2019-05-22T17:58:15.548Z,3.70
2019-05-22T18:00:51.361Z,3.87
2019-05-22T18:03:19.926Z,3.55
2019-05-22T18:05:48.682Z,4.37
2019-05-22T18:08:17.830Z,3.85
2019-05-22T18:10:48.561Z,3.90
2019-05-22T18:13:17.092Z,4.07
2019-05-22T18:15:46.430Z,9.43
2019-05-22T18:18:15.049Z,5.00
2019-05-22T18:20:44.322Z,7.20
2019-05-22T18:23:12.665Z,6.33
2019-05-22T18:25:41.290Z,3.60
2019-05-22T18:28:10.639Z,3.20
2019-05-22T18:30:40.619Z,7.65
2019-05-22T18:33:09.763Z,5.47
2019-05-22T18:35:38.333Z,3.23
2019-05-22T18:38:06.743Z,7.72
2019-05-22T18:40:35.204Z,3.70
2019-05-22T18:43:03.475Z,7.12
2019-05-22T18:45:35.012Z,3.50
2019-05-22T18:48:04.354Z,6.10
2019-05-22T18:50:32.815Z,3.30
2019-05-22T18:53:01.133Z,4.20
2019-05-22T18:55:30.521Z,3.57
2019-05-22T18:57:58.967Z,5.60
2019-05-22T19:00:28.894Z,3.42
2019-05-22T19:02:57.539Z,6.20
2019-05-22T19:05:28.022Z,3.30
2019-05-22T19:07:56.312Z,4.67
2019-05-22T19:10:24.667Z,3.43
2019-05-22T19:12:53.018Z,5.90
2019-05-22T19:15:22.671Z,3.30
2019-05-22T19:17:51.094Z,5.13
2019-05-22T19:20:19.365Z,5.08
2019-05-22T19:22:59.156Z,3.80
2019-05-22T19:25:18.241Z,4.70
2019-05-22T19:27:46.601Z,3.90
2019-05-22T19:30:19.053Z,6.07
2019-05-22T19:32:47.957Z,6.93
2019-05-22T19:35:16.235Z,3.70
2019-05-22T19:37:45.879Z,4.93
2019-05-22T19:40:16.996Z,4.30
2019-05-22T19:42:45.302Z,3.60
2019-05-22T19:45:14.293Z,4.40
2019-05-22T19:47:49.817Z,6.05
2019-05-22T19:50:23.080Z,4.43
2019-05-22T19:52:51.855Z,5.72
2019-05-22T19:55:21.487Z,4.53
2019-05-22T19:57:51.184Z,3.58
2019-05-22T20:00:19.589Z,6.20
2019-05-22T20:02:50.690Z,4.00
2019-05-22T20:05:18.594Z,4.78
2019-05-22T20:07:47.321Z,4.35
2019-05-22T20:10:15.591Z,5.60
2019-05-22T20:12:43.901Z,4.33
2019-05-22T20:15:12.325Z,5.10
2019-05-22T20:17:40.927Z,4.80
2019-05-22T20:20:11.227Z,8.77
2019-05-22T20:22:40.035Z,5.53
2019-05-22T20:25:08.756Z,5.00
2019-05-22T20:27:37.114Z,13.30
2019-05-22T20:30:07.132Z,4.57
2019-05-22T20:32:36.053Z,4.30
2019-05-22T20:35:05.850Z,5.00
2019-05-22T20:37:34.611Z,8.80
2019-05-22T20:40:03.234Z,5.63
2019-05-22T20:42:32.959Z,4.60
2019-05-22T20:45:01.884Z,6.27
2019-05-22T20:47:31.845Z,9.50
2019-05-22T20:50:01.514Z,6.30
2019-05-22T20:52:30.663Z,4.90
2019-05-22T20:54:59.429Z,8.50
2019-05-22T20:57:28.209Z,5.40
2019-05-22T20:59:56.636Z,8.28
2019-05-22T21:02:26.616Z,4.93
2019-05-22T21:04:57.507Z,4.90
2019-05-22T21:07:34.770Z,5.03
2019-05-22T21:10:03.882Z,6.35
2019-05-22T21:12:35.747Z,7.55
2019-05-22T21:15:03.482Z,5.57
2019-05-22T21:17:31.749Z,7.13
2019-05-22T21:20:00.683Z,5.73
2019-05-22T21:22:32.015Z,6.10
2019-05-22T21:25:00.246Z,6.60
2019-05-22T21:27:28.997Z,7.00
2019-05-22T21:29:57.563Z,6.42
2019-05-22T21:32:25.920Z,6.33
2019-05-22T21:34:55.176Z,6.10
2019-05-22T21:37:24.402Z,6.70
2019-05-22T21:39:52.850Z,6.00
2019-05-22T21:42:21.486Z,6.83
2019-05-22T21:44:50.036Z,6.50
2019-05-22T21:47:18.600Z,8.70
2019-05-22T21:49:47.028Z,7.10
2019-05-22T21:52:15.669Z,7.13
2019-05-22T21:54:44.390Z,7.80
2019-05-22T21:57:13.449Z,7.37
2019-05-22T21:59:41.795Z,6.87
2019-05-22T22:02:21.031Z,10.07
2019-05-22T22:04:49.535Z,6.77
2019-05-22T22:07:18.411Z,7.20
2019-05-22T22:09:47.073Z,8.17
2019-05-22T22:12:19.480Z,8.67
2019-05-22T22:14:49.619Z,7.83
2019-05-22T22:17:19.568Z,7.30
2019-05-22T22:19:49.170Z,7.17
2019-05-22T22:22:23.736Z,8.48
2019-05-22T22:24:52.288Z,7.83
2019-05-22T22:27:20.646Z,7.53
2019-05-22T22:29:49.561Z,8.00
2019-05-22T22:32:19.574Z,8.63
2019-05-22T22:34:48.587Z,8.03
2019-05-22T22:37:17.427Z,8.63
2019-05-22T22:39:47.494Z,7.80
2019-05-22T22:42:17.082Z,9.73
2019-05-22T22:44:48.050Z,8.30
2019-05-22T22:47:18.458Z,7.53
2019-05-22T22:49:48.064Z,10.28
2019-05-22T22:52:17.328Z,10.63
2019-05-22T22:54:46.091Z,11.63
2019-05-22T22:57:14.740Z,9.27
2019-05-22T22:59:43.254Z,9.37
2019-05-22T23:02:14.252Z,9.50
2019-05-22T23:04:43.407Z,8.40
2019-05-22T23:07:11.768Z,8.77
2019-05-22T23:09:42.503Z,8.38
2019-05-22T23:12:12.458Z,9.73
2019-05-22T23:14:45.381Z,9.10
2019-05-22T23:17:13.735Z,13.13
2019-05-22T23:19:42.680Z,11.93
2019-05-22T23:22:19.482Z,10.50
2019-05-22T23:24:49.431Z,15.15
2019-05-22T23:27:19.252Z,10.13
2019-05-22T23:29:48.195Z,12.20
2019-05-22T23:32:18.377Z,10.77
2019-05-22T23:34:47.265Z,8.90
2019-05-22T23:37:17.462Z,9.60
2019-05-22T23:39:46.178Z,10.10
2019-05-22T23:42:17.442Z,9.83
2019-05-22T23:44:46.194Z,9.00
2019-05-22T23:47:15.461Z,10.77
2019-05-22T23:49:43.828Z,11.25
2019-05-22T23:52:13.832Z,9.40
2019-05-22T23:54:43.770Z,10.53
2019-05-22T23:57:13.843Z,12.30
2019-05-22T23:59:42.432Z,10.08
